Time,TemperatureF,DewpointF,PressureIn,WindDirection,WindDirectionDegrees,WindSpeedMPH,WindSpeedGustMPH,Humidity,HourlyPrecipIn,Conditions,Clouds,dailyrainin,SoftwareType,DateUTC
2013-01-29 00:00:00,43.5,31.7,29.92,WNW,298,1.0,1.0,63,0.00,,,0.05,Wunderground v.1.15,2013-01-29 07:00:00,
2013-01-29 00:05:00,43.5,31.7,29.92,WNW,298,1.0,8.0,63,0.00,,,0.00,Wunderground v.1.15,2013-01-29 07:05:00,
2013-01-29 00:15:00,43.5,31.3,29.92,WNW,289,1.0,8.0,62,0.00,,,0.00,Wunderground v.1.15,2013-01-29 07:15:00,
2013-01-29 00:20:00,43.5,30.9,29.92,WNW,294,1.0,8.0,61,0.00,,,0.00,Wunderground v.1.15,2013-01-29 07:20:00,
2013-01-29 00:30:00,43.5,30.9,29.92,WNW,301,2.0,8.0,61,0.00,,,0.00,Wunderground v.1.15,2013-01-29 07:30:00,
2013-01-29 00:40:00,43.5,30.9,29.92,NW,306,2.0,2.0,61,0.00,,,0.00,Wunderground v.1.15,2013-01-29 07:40:00,
2013-01-29 00:50:00,43.5,30.5,29.92,NW,306,2.0,2.0,60,0.00,,,0.00,Wunderground v.1.15,2013-01-29 07:50:00,
2013-01-29 00:55:00,43.5,30.9,29.92,WNW,301,2.0,4.0,61,0.00,,,0.00,Wunderground v.1.15,2013-01-29 07:55:00,
2013-01-29 01:05:00,43.5,30.9,29.92,NW,306,2.0,8.0,61,0.00,,,0.00,Wunderground v.1.15,2013-01-29 08:05:00,
2013-01-29 01:15:00,43.5,32.1,29.93,WNW,282,3.0,8.0,64,0.00,,,0.00,Wunderground v.1.15,2013-01-29 08:15:00,
2013-01-29 01:25:00,43.2,31.1,29.93,West,260,2.0,6.0,62,0.00,,,0.00,Wunderground v.1.15,2013-01-29 08:25:00,
2013-01-29 01:35:00,43.2,30.6,29.93,WSW,251,2.0,8.0,61,0.00,,,0.00,Wunderground v.1.15,2013-01-29 08:35:00,
2013-01-29 01:40:00,43.1,30.1,29.93,West,261,3.0,8.0,60,0.00,,,0.00,Wunderground v.1.15,2013-01-29 08:40:00,
2013-01-29 01:50:00,42.8,29.5,29.93,WSW,258,3.0,8.0,59,0.00,,,0.00,Wunderground v.1.15,2013-01-29 08:50:00,
2013-01-29 01:55:00,42.8,29.5,29.93,WSW,258,3.0,8.0,59,0.00,,,0.00,Wunderground v.1.15,2013-01-29 08:55:00,
2013-01-29 02:05:00,42.6,30.1,29.92,WSW,254,1.0,8.0,61,0.00,,,0.00,Wunderground v.1.15,2013-01-29 09:05:00,
2013-01-29 02:10:00,42.5,30.0,29.92,WSW,254,1.0,1.0,61,0.00,,,0.00,Wunderground v.1.15,2013-01-29 09:10:00,
2013-01-29 02:20:00,42.3,29.8,29.92,WSW,256,0.0,8.0,61,0.00,,,0.00,Wunderground v.1.15,2013-01-29 09:20:00,
2013-01-29 02:25:00,42.3,29.8,29.92,WSW,256,0.0,8.0,61,0.00,,,0.00,Wunderground v.1.15,2013-01-29 09:25:00,
2013-01-29 02:35:00,42.5,30.0,29.93,West,270,2.0,8.0,61,0.00,,,0.00,Wunderground v.1.15,2013-01-29 09:35:00,
2013-01-29 02:40:00,42.3,30.6,29.93,WNW,285,1.0,8.0,63,0.00,,,0.00,Wunderground v.1.15,2013-01-29 09:40:00,
2013-01-29 02:50:00,42.5,30.8,29.93,West,268,3.0,8.0,63,0.00,,,0.00,Wunderground v.1.15,2013-01-29 09:50:00,
2013-01-29 02:55:00,42.3,31.0,29.93,WSW,258,3.0,8.0,64,0.00,,,0.00,Wunderground v.1.15,2013-01-29 09:55:00,
2013-01-29 03:05:00,42.3,31.4,29.93,WSW,257,4.0,8.0,65,0.00,,,0.00,Wunderground v.1.15,2013-01-29 10:05:00,
2013-01-29 03:15:00,42.1,31.9,29.93,WSW,257,2.0,8.0,67,0.00,,,0.00,Wunderground v.1.15,2013-01-29 10:15:00,
2013-01-29 03:20:00,41.9,31.4,29.93,West,265,2.0,2.0,66,0.00,,,0.00,Wunderground v.1.15,2013-01-29 10:20:00,
2013-01-29 03:30:00,42.1,30.8,29.93,West,270,3.0,8.0,64,0.00,,,0.00,Wunderground v.1.15,2013-01-29 10:30:00,
2013-01-29 03:35:00,42.1,30.4,29.93,WNW,288,5.0,8.0,63,0.00,,,0.00,Wunderground v.1.15,2013-01-29 10:35:00,
2013-01-29 03:45:00,41.9,30.6,29.94,West,277,3.0,8.0,64,0.00,,,0.00,Wunderground v.1.15,2013-01-29 10:45:00,
2013-01-29 03:50:00,42.1,30.4,29.94,WNW,292,3.0,8.0,63,0.00,,,0.00,Wunderground v.1.15,2013-01-29 10:50:00,
2013-01-29 04:00:00,42.1,29.6,29.94,West,263,5.0,10.0,61,0.00,,,0.00,Wunderground v.1.15,2013-01-29 11:00:00,
2013-01-29 04:10:00,42.1,29.6,29.94,WNW,291,7.0,7.0,61,0.00,,,0.00,Wunderground v.1.15,2013-01-29 11:10:00,
2013-01-29 04:15:00,41.9,29.0,29.94,WSW,257,7.0,13.0,60,0.00,,,0.00,Wunderground v.1.15,2013-01-29 11:15:00,
2013-01-29 04:25:00,41.5,29.0,29.94,West,261,7.0,8.0,61,0.00,,,0.00,Wunderground v.1.15,2013-01-29 11:25:00,
2013-01-29 04:30:00,41.5,29.0,29.94,WSW,258,6.0,11.0,61,0.00,,,0.00,Wunderground v.1.15,2013-01-29 11:30:00,
2013-01-29 04:40:00,41.5,28.2,29.94,WSW,254,7.0,10.0,59,0.00,,,0.00,Wunderground v.1.15,2013-01-29 11:40:00,
2013-01-29 04:50:00,41.2,28.4,29.94,West,260,6.0,6.0,60,0.00,,,0.00,Wunderground v.1.15,2013-01-29 11:50:00,
2013-01-29 04:55:00,41.2,28.4,29.94,West,277,7.0,7.0,60,0.00,,,0.00,Wunderground v.1.15,2013-01-29 11:55:00,
2013-01-29 05:05:00,41.1,27.4,29.95,WSW,256,5.0,8.0,58,0.00,,,0.00,Wunderground v.1.15,2013-01-29 12:05:00,
2013-01-29 05:10:00,41.1,28.3,29.95,WSW,257,6.0,8.0,60,0.00,,,0.00,Wunderground v.1.15,2013-01-29 12:10:00,
2013-01-29 05:20:00,40.9,27.2,29.95,West,260,7.0,7.0,58,0.00,,,0.00,Wunderground v.1.15,2013-01-29 12:20:00,
2013-01-29 05:25:00,40.8,27.6,29.95,WNW,296,6.0,8.0,59,0.00,,,0.00,Wunderground v.1.15,2013-01-29 12:25:00,
2013-01-29 05:35:00,40.6,27.0,29.95,West,278,4.0,8.0,58,0.00,,,0.00,Wunderground v.1.15,2013-01-29 12:35:00,
2013-01-29 05:40:00,40.5,27.3,29.95,WSW,253,5.0,5.0,59,0.00,,,0.00,Wunderground v.1.15,2013-01-29 12:40:00,
2013-01-29 05:50:00,40.3,27.9,29.96,West,281,5.0,5.0,61,0.00,,,0.00,Wunderground v.1.15,2013-01-29 12:50:00,
2013-01-29 06:00:00,40.2,27.0,29.97,WSW,257,4.0,8.0,59,0.00,,,0.00,Wunderground v.1.15,2013-01-29 13:00:00,
2013-01-29 06:10:00,40.1,26.9,29.97,WNW,302,5.0,8.0,59,0.00,,,0.00,Wunderground v.1.15,2013-01-29 13:10:00,
2013-01-29 06:15:00,40.1,26.5,29.97,West,263,5.0,8.0,58,0.00,,,0.00,Wunderground v.1.15,2013-01-29 13:15:00,
2013-01-29 06:25:00,40.2,26.2,29.97,West,263,6.0,10.0,57,0.00,,,0.00,Wunderground v.1.15,2013-01-29 13:25:00,
2013-01-29 06:30:00,40.2,27.0,29.98,WNW,291,6.0,6.0,59,0.00,,,0.00,Wunderground v.1.15,2013-01-29 13:30:00,
2013-01-29 06:40:00,40.2,25.7,29.98,West,264,5.0,8.0,56,0.00,,,0.00,Wunderground v.1.15,2013-01-29 13:40:00,
2013-01-29 06:50:00,40.1,25.6,29.99,WSW,257,6.0,11.0,56,0.00,,,0.00,Wunderground v.1.15,2013-01-29 13:50:00,
2013-01-29 07:00:00,39.8,26.2,29.99,WNW,295,5.0,5.0,58,0.00,,,0.00,Wunderground v.1.15,2013-01-29 14:00:00,
2013-01-29 07:05:00,39.6,25.6,29.99,NW,306,3.0,8.0,57,0.00,,,0.00,Wunderground v.1.15,2013-01-29 14:05:00,
2013-01-29 07:15:00,39.1,26.8,30.01,NW,311,1.0,8.0,61,0.00,,,0.00,Wunderground v.1.15,2013-01-29 14:15:00,
2013-01-29 07:25:00,38.0,26.9,30.01,NW,312,0.0,8.0,64,0.00,,,0.00,Wunderground v.1.15,2013-01-29 14:25:00,
2013-01-29 07:35:00,37.9,25.6,30.02,NW,312,0.0,8.0,61,0.00,,,0.00,Wunderground v.1.15,2013-01-29 14:35:00,
2013-01-29 07:40:00,38.2,26.7,30.02,NW,312,0.0,8.0,63,0.00,,,0.00,Wunderground v.1.15,2013-01-29 14:40:00,
2013-01-29 07:50:00,37.9,29.0,30.02,North,357,1.0,1.0,70,0.00,,,0.00,Wunderground v.1.15,2013-01-29 14:50:00,
2013-01-29 08:00:00,38.2,29.6,30.03,North,357,0.0,8.0,71,0.00,,,0.00,Wunderground v.1.15,2013-01-29 15:00:00,
2013-01-29 08:05:00,38.3,29.7,30.03,North,357,0.0,8.0,71,0.00,,,0.00,Wunderground v.1.15,2013-01-29 15:05:00,
2013-01-29 08:15:00,39.2,30.2,30.03,North,357,0.0,8.0,70,0.00,,,0.00,Wunderground v.1.15,2013-01-29 15:15:00,
2013-01-29 08:25:00,39.9,29.8,30.03,North,357,1.0,8.0,67,0.00,,,0.00,Wunderground v.1.15,2013-01-29 15:25:00,
2013-01-29 08:30:00,40.3,28.7,30.03,North,356,1.0,1.0,63,0.00,,,0.00,Wunderground v.1.15,2013-01-29 15:30:00,
2013-01-29 08:40:00,41.3,29.3,30.03,NW,325,1.0,8.0,62,0.00,,,0.00,Wunderground v.1.15,2013-01-29 15:40:00,
2013-01-29 08:50:00,42.5,24.2,30.03,NW,304,2.0,8.0,48,0.00,,,0.00,Wunderground v.1.15,2013-01-29 15:50:00,
2013-01-29 08:55:00,42.9,23.0,30.03,WNW,292,4.0,8.0,45,0.00,,,0.00,Wunderground v.1.15,2013-01-29 15:55:00,
2013-01-29 09:05:00,43.3,21.7,30.02,West,281,5.0,8.0,42,0.00,,,0.00,Wunderground v.1.15,2013-01-29 16:05:00,
2013-01-29 09:15:00,43.8,21.6,30.03,WNW,302,4.0,6.0,41,0.00,,,0.00,Wunderground v.1.15,2013-01-29 16:15:00,
2013-01-29 09:25:00,44.2,21.4,30.03,West,264,4.0,8.0,40,0.00,,,0.00,Wunderground v.1.15,2013-01-29 16:25:00,
2013-01-29 09:30:00,44.3,21.5,30.03,WNW,284,4.0,8.0,40,0.00,,,0.00,Wunderground v.1.15,2013-01-29 16:30:00,
2013-01-29 09:40:00,45.1,21.0,30.03,West,263,3.0,3.0,38,0.00,,,0.00,Wunderground v.1.15,2013-01-29 16:40:00,
2013-01-29 09:45:00,45.1,22.2,30.03,West,260,3.0,8.0,40,0.00,,,0.00,Wunderground v.1.15,2013-01-29 16:45:00,
2013-01-29 09:55:00,45.4,21.2,30.03,West,278,5.0,8.0,38,0.00,,,0.00,Wunderground v.1.15,2013-01-29 16:55:00,
2013-01-29 10:05:00,46.5,20.9,30.03,WNW,296,4.0,8.0,36,0.00,,,0.00,Wunderground v.1.15,2013-01-29 17:05:00,
2013-01-29 10:10:00,46.2,19.3,30.03,WNW,285,4.0,4.0,34,0.00,,,0.00,Wunderground v.1.15,2013-01-29 17:10:00,
2013-01-29 10:20:00,46.7,20.5,30.04,West,263,4.0,4.0,35,0.00,,,0.00,Wunderground v.1.15,2013-01-29 17:20:00,
2013-01-29 10:25:00,46.7,19.8,30.04,West,270,6.0,9.0,34,0.00,,,0.00,Wunderground v.1.15,2013-01-29 17:25:00,
2013-01-29 10:35:00,46.8,22.5,30.04,NW,306,7.0,8.0,38,0.00,,,0.00,Wunderground v.1.15,2013-01-29 17:35:00,
2013-01-29 10:45:00,47.1,20.8,30.05,NW,304,6.0,8.0,35,0.00,,,0.00,Wunderground v.1.15,2013-01-29 17:45:00,
2013-01-29 10:50:00,47.7,22.7,30.05,NW,313,5.0,8.0,37,0.00,,,0.00,Wunderground v.1.15,2013-01-29 17:50:00,
2013-01-29 11:00:00,48.0,22.3,30.04,NW,311,5.0,10.0,36,0.00,,,0.00,Wunderground v.1.15,2013-01-29 18:00:00,
2013-01-29 11:10:00,48.5,19.9,30.04,NW,322,6.0,8.0,32,0.00,,,0.00,Wunderground v.1.15,2013-01-29 18:10:00,
2013-01-29 11:15:00,48.6,20.8,30.03,NW,308,5.0,8.0,33,0.00,,,0.00,Wunderground v.1.15,2013-01-29 18:15:00,
2013-01-29 11:25:00,48.6,20.0,30.03,WNW,302,7.0,10.0,32,0.00,,,0.00,Wunderground v.1.15,2013-01-29 18:25:00,
2013-01-29 11:35:00,49.1,19.7,30.03,NW,326,7.0,8.0,31,0.00,,,0.00,Wunderground v.1.15,2013-01-29 18:35:00,
2013-01-29 11:45:00,49.5,20.1,30.03,WSW,258,6.0,9.0,31,0.00,,,0.00,Wunderground v.1.15,2013-01-29 18:45:00,
2013-01-29 11:50:00,49.9,20.4,30.03,NW,316,5.0,12.0,31,0.00,,,0.00,Wunderground v.1.15,2013-01-29 18:50:00,
2013-01-29 12:00:00,49.9,17.2,30.02,NW,315,7.0,7.0,27,0.00,,,0.00,Wunderground v.1.15,2013-01-29 19:00:00,
2013-01-29 12:10:00,50.7,17.9,30.02,WNW,294,5.0,5.0,27,0.00,,,0.00,Wunderground v.1.15,2013-01-29 19:10:00,
2013-01-29 12:15:00,51.1,15.5,30.01,North,349,5.0,8.0,24,0.00,,,0.00,Wunderground v.1.15,2013-01-29 19:15:00,
2013-01-29 12:25:00,50.5,14.0,30.01,NW,320,8.0,15.0,23,0.00,,,0.00,Wunderground v.1.15,2013-01-29 19:25:00,
2013-01-29 12:35:00,50.4,15.8,30.01,NW,312,8.0,8.0,25,0.00,,,0.00,Wunderground v.1.15,2013-01-29 19:35:00,
2013-01-29 12:40:00,50.7,17.0,30.01,NW,323,8.0,8.0,26,0.00,,,0.00,Wunderground v.1.15,2013-01-29 19:40:00,
2013-01-29 12:50:00,50.8,18.8,30.01,WNW,282,6.0,6.0,28,0.00,,,0.00,Wunderground v.1.15,2013-01-29 19:50:00,
2013-01-29 13:00:00,50.5,16.8,30.00,NNW,336,8.0,8.0,26,0.00,,,0.00,Wunderground v.1.15,2013-01-29 20:00:00,
2013-01-29 13:05:00,50.8,16.2,30.00,NNW,329,8.0,10.0,25,0.00,,,0.00,Wunderground v.1.15,2013-01-29 20:05:00,
2013-01-29 13:15:00,52.2,16.4,29.99,WNW,296,5.0,8.0,24,0.00,,,0.00,Wunderground v.1.15,2013-01-29 20:15:00,
2013-01-29 13:25:00,51.9,16.2,29.99,NW,325,7.0,8.0,24,0.00,,,0.00,Wunderground v.1.15,2013-01-29 20:25:00,
2013-01-29 13:35:00,51.6,16.9,30.00,NW,304,8.0,11.0,25,0.00,,,0.00,Wunderground v.1.15,2013-01-29 20:35:00,
2013-01-29 13:40:00,51.7,16.0,30.00,WNW,292,7.0,7.0,24,0.00,,,0.00,Wunderground v.1.15,2013-01-29 20:40:00,
2013-01-29 13:50:00,52.3,16.5,29.99,WNW,296,5.0,8.0,24,0.00,,,0.00,Wunderground v.1.15,2013-01-29 20:50:00,
2013-01-29 14:00:00,52.3,18.4,29.98,NNW,342,6.0,8.0,26,0.00,,,0.00,Wunderground v.1.15,2013-01-29 21:00:00,
2013-01-29 14:05:00,52.5,17.6,29.98,North,10,6.0,8.0,25,0.00,,,0.00,Wunderground v.1.15,2013-01-29 21:05:00,
2013-01-29 14:15:00,52.8,18.8,29.98,NW,308,6.0,12.0,26,0.00,,,0.00,Wunderground v.1.15,2013-01-29 21:15:00,
2013-01-29 14:25:00,52.3,16.5,29.98,NW,306,7.0,8.0,24,0.00,,,0.00,Wunderground v.1.15,2013-01-29 21:25:00,
2013-01-29 14:30:00,52.3,17.5,29.97,NW,306,8.0,8.0,25,0.00,,,0.00,Wunderground v.1.15,2013-01-29 21:30:00,
2013-01-29 14:40:00,52.6,17.7,29.97,NW,315,6.0,6.0,25,0.00,,,0.00,Wunderground v.1.15,2013-01-29 21:40:00,
2013-01-29 14:45:00,52.6,17.7,29.96,NW,305,6.0,7.0,25,0.00,,,0.00,Wunderground v.1.15,2013-01-29 21:45:00,
2013-01-29 14:55:00,52.6,17.7,29.96,NW,316,6.0,8.0,25,0.00,,,0.00,Wunderground v.1.15,2013-01-29 21:55:00,
2013-01-29 15:05:00,52.6,18.6,29.96,WSW,253,5.0,11.0,26,0.00,,,0.00,Wunderground v.1.15,2013-01-29 22:05:00,
2013-01-29 15:10:00,53.1,20.0,29.96,WNW,302,5.0,8.0,27,0.00,,,0.00,Wunderground v.1.15,2013-01-29 22:10:00,
2013-01-29 15:20:00,53.1,19.1,29.95,NW,308,5.0,5.0,26,0.00,,,0.00,Wunderground v.1.15,2013-01-29 22:20:00,
2013-01-29 15:30:00,52.8,18.8,29.96,NW,315,6.0,8.0,26,0.00,,,0.00,Wunderground v.1.15,2013-01-29 22:30:00,
2013-01-29 15:40:00,52.5,18.6,29.96,WNW,288,0.0,0.0,26,0.00,,,0.00,Wunderground v.1.15,2013-01-29 22:40:00,
2013-01-29 15:50:00,52.6,18.6,29.96,WSW,258,10.0,10.0,26,0.00,,,0.00,Wunderground v.1.15,2013-01-29 22:50:00,
2013-01-29 15:55:00,52.8,18.8,29.96,NW,308,9.0,10.0,26,0.00,,,0.00,Wunderground v.1.15,2013-01-29 22:55:00,
2013-01-29 16:05:00,52.9,18.9,29.96,WNW,296,3.0,9.0,26,0.00,,,0.00,Wunderground v.1.15,2013-01-29 23:05:00,
2013-01-29 16:15:00,52.5,18.6,29.97,NW,305,12.0,12.0,26,0.00,,,0.00,Wunderground v.1.15,2013-01-29 23:15:00,
2013-01-29 16:20:00,52.5,18.6,29.97,WNW,296,5.0,5.0,26,0.00,,,0.00,Wunderground v.1.15,2013-01-29 23:20:00,
2013-01-29 16:35:00,52.8,18.8,29.97,NW,309,12.0,12.0,26,0.00,,,0.00,Wunderground v.1.15,2013-01-29 23:35:00,
2013-01-29 16:40:00,52.3,16.5,29.97,NW,306,7.0,12.0,24,0.00,,,0.00,Wunderground v.1.15,2013-01-29 23:40:00,
2013-01-29 16:50:00,52.3,19.3,29.98,WNW,291,4.0,7.0,27,0.00,,,0.00,Wunderground v.1.15,2013-01-29 23:50:00,
2013-01-29 17:00:00,51.9,17.1,29.98,NW,306,6.0,6.0,25,0.00,,,0.00,Wunderground v.1.15,2013-01-30 00:00:00,
2013-01-29 17:05:00,51.7,17.9,29.98,WNW,302,7.0,7.0,26,0.00,,,0.00,Wunderground v.1.15,2013-01-30 00:05:00,
2013-01-29 17:10:00,51.7,17.9,29.98,NW,312,5.0,10.0,26,0.00,,,0.00,Wunderground v.1.15,2013-01-30 00:10:00,
2013-01-29 19:15:00,46.2,22.0,30.06,NW,319,1.0,1.0,38,0.00,,,0.00,Wunderground v.1.15,2013-01-30 02:15:00,
2013-01-29 19:20:00,46.2,22.0,30.06,NW,304,2.0,2.0,38,0.00,,,0.00,Wunderground v.1.15,2013-01-30 02:20:00,
2013-01-29 19:30:00,44.2,20.2,30.07,WNW,289,0.0,2.0,38,0.00,,,0.00,Wunderground v.1.15,2013-01-30 02:30:00,
2013-01-29 19:40:00,43.9,19.9,30.07,WNW,289,2.0,2.0,38,0.00,,,0.00,Wunderground v.1.15,2013-01-30 02:40:00,
2013-01-29 19:45:00,43.9,19.9,30.07,WNW,289,0.0,0.0,38,0.00,,,0.00,Wunderground v.1.15,2013-01-30 02:45:00,
2013-01-29 19:55:00,43.6,19.6,30.07,WNW,289,0.0,0.0,38,0.00,,,0.00,Wunderground v.1.15,2013-01-30 02:55:00,
2013-01-29 20:00:00,43.6,19.6,30.08,WNW,289,0.0,0.0,38,0.00,,,0.00,Wunderground v.1.15,2013-01-30 03:00:00,
2013-01-29 20:10:00,43.2,19.3,30.08,WNW,289,0.0,5.0,38,0.00,,,0.00,Wunderground v.1.15,2013-01-30 03:10:00,
2013-01-29 20:20:00,43.2,19.3,30.07,WNW,289,0.0,5.0,38,0.00,,,0.00,Wunderground v.1.15,2013-01-30 03:20:00,
2013-01-29 20:30:00,42.6,18.7,30.08,WNW,289,3.0,5.0,38,0.00,,,0.00,Wunderground v.1.15,2013-01-30 03:30:00,
2013-01-29 20:35:00,42.6,18.7,30.08,WNW,289,3.0,5.0,38,0.00,,,0.00,Wunderground v.1.15,2013-01-30 03:35:00,
2013-01-29 20:45:00,42.6,18.7,30.08,WNW,289,0.0,5.0,38,0.00,,,0.00,Wunderground v.1.15,2013-01-30 03:45:00,
2013-01-29 20:55:00,42.1,18.3,30.08,WNW,289,2.0,5.0,38,0.00,,,0.00,Wunderground v.1.15,2013-01-30 03:55:00,
2013-01-29 21:05:00,41.9,18.1,30.08,WNW,289,0.0,5.0,38,0.00,,,0.00,Wunderground v.1.15,2013-01-30 04:05:00,
2013-01-29 21:15:00,41.5,17.7,30.07,WNW,289,0.0,5.0,38,0.00,,,0.00,Wunderground v.1.15,2013-01-30 04:15:00,
2013-01-29 21:20:00,41.3,17.6,30.07,WNW,289,0.0,5.0,38,0.00,,,0.00,Wunderground v.1.15,2013-01-30 04:20:00,
2013-01-29 21:30:00,41.5,17.7,30.08,WNW,289,0.0,5.0,38,0.00,,,0.00,Wunderground v.1.15,2013-01-30 04:30:00,
2013-01-29 21:40:00,41.5,17.7,30.08,WNW,289,0.0,5.0,38,0.00,,,0.00,Wunderground v.1.15,2013-01-30 04:40:00,
2013-01-29 21:50:00,-999.9,-99.9,30.06,North,32767,-999.0,5.0,255,-99.99,,,0.00,Wunderground v.1.15,2013-01-30 04:50:00,
2013-01-29 21:55:00,-999.9,-99.9,30.06,North,32767,-999.0,5.0,255,-99.99,,,0.00,Wunderground v.1.15,2013-01-30 04:55:00,
2013-01-29 22:05:00,40.3,25.4,30.06,WNW,289,0.0,5.0,55,0.00,,,0.00,Wunderground v.1.15,2013-01-30 05:05:00,
2013-01-29 22:10:00,39.8,26.6,30.06,NNE,18,0.0,5.0,59,0.00,,,0.00,Wunderground v.1.15,2013-01-30 05:10:00,
2013-01-29 22:15:00,39.6,26.8,30.09,NNE,18,0.0,5.0,60,0.00,,,0.00,Wunderground v.1.15,2013-01-30 05:15:00,
2013-01-29 22:20:00,39.8,25.8,30.09,NNE,18,0.0,5.0,57,0.00,,,0.00,Wunderground v.1.15,2013-01-30 05:20:00,
2013-01-29 22:30:00,39.8,25.8,30.09,NNE,18,0.0,5.0,57,0.00,,,0.00,Wunderground v.1.15,2013-01-30 05:30:00,
2013-01-29 22:40:00,40.5,25.6,30.09,NNE,25,0.0,5.0,55,0.00,,,0.00,Wunderground v.1.15,2013-01-30 05:40:00,
2013-01-29 22:50:00,39.9,25.9,30.10,NNE,25,0.0,5.0,57,0.00,,,0.00,Wunderground v.1.15,2013-01-30 05:50:00,
2013-01-29 22:55:00,39.6,26.4,30.10,NNE,25,0.0,5.0,59,0.00,,,0.00,Wunderground v.1.15,2013-01-30 05:55:00,
2013-01-29 23:05:00,39.1,25.1,30.11,NNE,25,0.0,5.0,57,0.00,,,0.00,Wunderground v.1.15,2013-01-30 06:05:00,
2013-01-29 23:15:00,38.3,26.0,30.11,NNE,25,0.0,5.0,61,0.00,,,0.00,Wunderground v.1.15,2013-01-30 06:15:00,
2013-01-29 23:25:00,38.2,25.1,30.11,NNE,25,0.0,5.0,59,0.00,,,0.00,Wunderground v.1.15,2013-01-30 06:25:00,
2013-01-29 23:30:00,38.2,25.9,30.11,NNE,25,0.0,5.0,61,0.00,,,0.00,Wunderground v.1.15,2013-01-30 06:30:00,
2013-01-29 23:40:00,38.2,24.3,30.11,NNE,25,0.0,5.0,57,0.00,,,0.00,Wunderground v.1.15,2013-01-30 06:40:00,
2013-01-29 23:50:00,37.9,26.0,30.11,NNE,25,0.0,5.0,62,0.00,,,0.00,Wunderground v.1.15,2013-01-30 06:50:00,